Terminal Aerodrome Forecast
Issued by NWS Amarillo, TX

Home | Current Version | Previous Version | Text Only | Print | Product List | Glossary On
Versions: 1 2 3 4 5 6 7 8 9 10 11 12 13 14
000
FTUS44 KAMA 032300 RRA
TAFDHT
TAF
KDHT 032341Z 0400/0424 14010KT P6SM SCT040 BKN300
      TEMPO 0401/0405 3SM +TSRA BKN020CB
     FM040700 17008KT P6SM SCT120 BKN300
     FM041600 32009KT P6SM SCT300
     FM042000 09007KT P6SM SCT060=

USA.gov is the U.S. government's official web portal to all federal, state and local government web resources and services.